Time;durP1;ratioP1;P1;durP2;ratioP2;P2;SDS_P1;SDS_P2;PMS_P1;PMS_P2;Temp;Humidity;BMP_temperature;BMP_pressure;BME280_temperature;BME280_humidity;BME280_pressure;Samples;Min_cycle;Max_cycle;Signal;HPM_P1;HPM_P2
2023/10/25 00:02:13;;;;;;;3.70;1.90;;;;;;;15.09;100.00;96201.69;1225235;75;2919862;-72
2023/10/25 00:04:46;;;;;;;7.95;4.00;;;;;;;14.51;100.00;96213.91;1224544;75;2918487;-71
2023/10/25 00:07:19;;;;;;;7.40;3.90;;;;;;;14.54;100.00;96208.09;1224651;75;2921028;-73
2023/10/25 00:09:52;;;;;;;8.35;4.40;;;;;;;14.63;100.00;96217.91;1224552;75;2920889;-76
2023/10/25 00:12:24;;;;;;;4.65;2.90;;;;;;;14.84;100.00;96220.63;1225135;75;2912442;-72
2023/10/25 00:14:57;;;;;;;3.70;2.05;;;;;;;14.97;100.00;96231.56;1225502;75;2917206;-77
2023/10/25 00:17:32;;;;;;;5.10;2.45;;;;;;;14.82;100.00;96231.47;1224009;75;2920962;-73
2023/10/25 00:20:05;;;;;;;3.80;2.60;;;;;;;14.73;100.00;96240.94;1224817;75;2914374;-78
2023/10/25 00:22:38;;;;;;;3.80;2.45;;;;;;;14.81;100.00;96238.97;1225180;75;2916686;-75
2023/10/25 00:25:11;;;;;;;3.95;2.40;;;;;;;14.93;100.00;96244.22;1224417;75;2920652;-73
2023/10/25 00:27:44;;;;;;;4.55;2.00;;;;;;;14.99;100.00;96244.81;1225388;75;2922077;-73
2023/10/25 00:30:17;;;;;;;4.10;2.15;;;;;;;14.97;100.00;96244.63;1226054;75;2914242;-76
2023/10/25 00:32:52;;;;;;;3.90;2.20;;;;;;;15.03;100.00;96253.47;1224870;75;2920840;-71
2023/10/25 00:35:25;;;;;;;6.15;2.70;;;;;;;14.80;100.00;96251.28;1225309;75;2919384;-73
2023/10/25 00:37:58;;;;;;;3.70;2.10;;;;;;;14.89;100.00;96250.06;1225300;75;2916953;-73
2023/10/25 00:40:31;;;;;;;4.95;2.60;;;;;;;14.62;100.00;96250.22;1224874;75;2922536;-73
2023/10/25 00:43:18;;;;;;;6.65;2.60;;;;;;;14.74;100.00;96256.16;1225848;75;2918564;-76
2023/10/25 00:46:14;;;;;;;3.00;1.90;;;;;;;14.86;100.00;96260.16;1225377;75;2914600;-74
2023/10/25 00:48:50;;;;;;;2.90;1.50;;;;;;;14.98;100.00;96259.84;1224787;75;2918579;-74
2023/10/25 00:51:24;;;;;;;4.10;2.00;;;;;;;14.79;100.00;96255.31;1225173;75;2928543;-75
2023/10/25 00:54:00;;;;;;;3.30;1.70;;;;;;;14.78;100.00;96262.09;1225950;75;2928698;-77
2023/10/25 00:56:35;;;;;;;3.10;1.50;;;;;;;14.75;100.00;96271.44;1225186;75;2918913;-74
2023/10/25 00:59:09;;;;;;;3.05;1.45;;;;;;;14.84;100.00;96268.22;1225433;75;2914811;-71
2023/10/25 01:01:44;;;;;;;3.40;1.65;;;;;;;14.67;100.00;96270.63;1225403;75;2917968;-74
2023/10/25 01:04:20;;;;;;;3.20;1.35;;;;;;;14.43;100.00;96269.66;1225642;75;2918124;-71
2023/10/25 01:06:52;;;;;;;2.25;1.10;;;;;;;14.46;100.00;96268.56;1225655;75;2925948;-74
2023/10/25 01:09:25;;;;;;;2.50;0.85;;;;;;;14.35;100.00;96273.59;1224823;75;2931893;-70
2023/10/25 01:11:57;;;;;;;1.20;0.75;;;;;;;14.29;100.00;96270.97;1225728;75;2920264;-75
2023/10/25 01:14:31;;;;;;;0.80;0.60;;;;;;;14.60;100.00;96272.03;1224596;75;2924866;-74
2023/10/25 01:17:03;;;;;;;1.55;0.70;;;;;;;14.49;100.00;96284.00;1225366;75;2916177;-75
2023/10/25 01:19:39;;;;;;;1.20;0.80;;;;;;;14.48;100.00;96290.81;1226059;75;2916866;-73
2023/10/25 01:22:11;;;;;;;1.55;0.50;;;;;;;14.70;100.00;96281.31;1221977;75;2990259;-77
2023/10/25 01:24:47;;;;;;;1.25;0.55;;;;;;;14.53;100.00;96278.19;1224557;75;2918462;-75
2023/10/25 01:27:20;;;;;;;1.65;0.85;;;;;;;14.67;100.00;96276.13;1224274;75;2926508;-71
2023/10/25 01:29:50;;;;;;;2.30;0.50;;;;;;;14.78;100.00;96283.41;1224930;75;2917481;-71
2023/10/25 01:32:23;;;;;;;0.75;0.40;;;;;;;14.57;100.00;96288.88;1226273;75;2860521;-71
2023/10/25 01:34:55;;;;;;;0.90;0.50;;;;;;;14.45;100.00;96291.13;1220297;75;3077457;-74
2023/10/25 01:37:28;;;;;;;1.25;0.70;;;;;;;14.34;100.00;96294.16;1224628;75;2917753;-75
2023/10/25 01:40:03;;;;;;;0.90;0.50;;;;;;;14.70;100.00;96292.31;1224618;75;2924001;-72
2023/10/25 01:42:36;;;;;;;0.70;0.55;;;;;;;14.47;100.00;96305.09;1224985;75;2918839;-72
2023/10/25 01:45:10;;;;;;;0.60;0.50;;;;;;;14.31;100.00;96308.97;1222924;75;2931891;-74
2023/10/25 01:47:44;;;;;;;1.25;0.50;;;;;;;14.67;100.00;96304.44;1225055;75;2924036;-72
2023/10/25 01:50:16;;;;;;;0.75;0.50;;;;;;;14.42;100.00;96311.47;1222486;75;2989463;-75
2023/10/25 01:52:49;;;;;;;0.70;0.50;;;;;;;14.63;100.00;96311.53;1224921;75;2917884;-74
2023/10/25 01:55:24;;;;;;;0.65;0.35;;;;;;;14.56;100.00;96309.44;1224473;75;2924716;-74
2023/10/25 01:57:57;;;;;;;0.30;0.30;;;;;;;14.46;100.00;96312.63;1225907;75;2916711;-71
2023/10/25 02:00:29;;;;;;;1.55;0.50;;;;;;;14.31;100.00;96309.72;1225443;75;2926971;-72
2023/10/25 02:03:02;;;;;;;0.30;0.30;;;;;;;14.46;100.00;96312.63;1225093;75;2920982;-75
2023/10/25 02:05:36;;;;;;;0.85;0.45;;;;;;;14.38;100.00;96311.81;1224589;75;2924988;-73
2023/10/25 02:08:08;;;;;;;1.35;0.40;;;;;;;14.40;100.00;96308.50;1224250;75;2921271;-71
2023/10/25 02:10:44;;;;;;;0.50;0.40;;;;;;;14.55;100.00;96310.72;1225322;75;2921556;-71
2023/10/25 02:13:17;;;;;;;1.25;0.70;;;;;;;14.42;100.00;96305.97;1225717;75;2912824;-72
2023/10/25 02:15:49;;;;;;;2.25;1.20;;;;;;;14.52;100.00;96304.22;1225706;75;2927358;-74
2023/10/25 02:18:22;;;;;;;1.20;0.80;;;;;;;14.53;100.00;96299.47;1225453;75;2921556;-73
2023/10/25 02:20:54;;;;;;;1.45;0.90;;;;;;;14.46;100.00;96306.38;1224877;75;2937535;-71
2023/10/25 02:23:27;;;;;;;1.20;0.90;;;;;;;14.50;100.00;96306.78;1224179;75;2923269;-74
2023/10/25 02:26:02;;;;;;;2.05;1.25;;;;;;;14.15;100.00;96302.56;1224565;75;2925971;-76
2023/10/25 02:28:35;;;;;;;2.20;1.40;;;;;;;13.98;100.00;96300.16;1226141;75;2914864;-74
2023/10/25 02:31:07;;;;;;;2.15;1.15;;;;;;;14.27;100.00;96295.53;1225454;75;2916994;-73
2023/10/25 02:33:41;;;;;;;2.00;1.10;;;;;;;14.28;100.00;96291.50;1224679;75;2923659;-73
2023/10/25 02:36:14;;;;;;;1.45;1.00;;;;;;;14.32;100.00;96300.19;1225406;75;2917427;-69
2023/10/25 02:38:49;;;;;;;2.00;1.00;;;;;;;14.31;100.00;96300.69;1225221;75;2917119;-74
2023/10/25 02:41:25;;;;;;;0.95;0.55;;;;;;;14.32;100.00;96299.44;1223658;75;2930092;-72
2023/10/25 02:43:58;;;;;;;1.10;0.60;;;;;;;14.23;100.00;96301.34;1225392;75;2921547;-75
2023/10/25 02:46:31;;;;;;;1.10;0.60;;;;;;;14.14;100.00;96307.31;1224904;75;2922422;-75
2023/10/25 02:49:03;;;;;;;0.50;0.40;;;;;;;14.17;100.00;96309.00;1225006;75;2919881;-74
2023/10/25 02:51:36;;;;;;;0.60;0.50;;;;;;;14.05;100.00;96321.53;1224617;75;2930407;-78
2023/10/25 02:54:09;;;;;;;0.75;0.40;;;;;;;14.21;100.00;96325.19;1224105;75;2914462;-76
2023/10/25 02:56:44;;;;;;;0.45;0.45;;;;;;;14.06;100.00;96340.25;1224786;75;2917217;-77
2023/10/25 02:59:17;;;;;;;0.50;0.50;;;;;;;13.99;100.00;96346.38;1223638;75;2932238;-76
2023/10/25 03:01:50;;;;;;;1.10;0.50;;;;;;;13.76;100.00;96359.84;1225229;75;2924249;-78
2023/10/25 03:04:22;;;;;;;0.60;0.60;;;;;;;13.76;100.00;96364.63;1225284;75;2924337;-77
2023/10/25 03:06:55;;;;;;;0.90;0.60;;;;;;;14.00;100.00;96372.66;1224998;75;2903673;-73
2023/10/25 03:09:27;;;;;;;1.45;0.90;;;;;;;13.75;100.00;96385.13;1224689;75;2918417;-75
2023/10/25 03:12:03;;;;;;;0.90;0.90;;;;;;;14.03;100.00;96385.34;1224325;75;2927631;-74
2023/10/25 03:14:35;;;;;;;1.35;0.80;;;;;;;13.96;100.00;96391.47;1224646;75;2929458;-69
2023/10/25 03:17:08;;;;;;;1.60;0.65;;;;;;;14.03;100.00;96390.84;1225607;75;2929544;-71
2023/10/25 03:19:41;;;;;;;2.40;0.95;;;;;;;13.77;100.00;96415.59;1222773;75;2919359;-74
2023/10/25 03:22:13;;;;;;;1.60;1.15;;;;;;;13.62;100.00;96416.84;1225063;75;2921453;-76
2023/10/25 03:24:46;;;;;;;1.65;0.80;;;;;;;13.93;100.00;96427.56;1224941;75;2917588;-75
2023/10/25 03:27:21;;;;;;;1.95;1.00;;;;;;;13.73;100.00;96426.16;1223997;75;2924477;-71
2023/10/25 03:29:54;;;;;;;1.90;1.20;;;;;;;13.66;100.00;96437.78;1224938;75;2926178;-74
2023/10/25 03:32:27;;;;;;;3.50;1.30;;;;;;;13.24;100.00;96440.19;1220305;75;3068999;-75
2023/10/25 03:34:59;;;;;;;3.85;1.70;;;;;;;13.35;100.00;96429.06;1223044;75;2944698;-73
2023/10/25 03:37:32;;;;;;;3.30;1.90;;;;;;;13.40;100.00;96430.97;1224668;75;2920741;-75
2023/10/25 03:40:05;;;;;;;3.30;1.70;;;;;;;13.45;100.00;96437.66;1221869;75;3062728;-71
2023/10/25 03:42:41;;;;;;;7.60;2.20;;;;;;;13.31;100.00;96445.09;1225823;75;2922313;-76
2023/10/25 03:45:16;;;;;;;3.70;2.10;;;;;;;13.32;100.00;96449.31;1213187;75;3065456;-76
2023/10/25 03:47:48;;;;;;;2.90;1.40;;;;;;;13.70;100.00;96444.44;1224692;75;3097977;-74
2023/10/25 03:50:21;;;;;;;2.30;1.20;;;;;;;13.84;100.00;96450.72;1226727;75;2923659;-74
2023/10/25 03:52:54;;;;;;;2.50;1.60;;;;;;;13.36;100.00;96458.75;1225610;75;3047310;-72
2023/10/25 03:55:26;;;;;;;4.35;2.30;;;;;;;13.38;100.00;96461.72;1225974;75;2998268;-73
2023/10/25 03:58:02;;;;;;;3.00;1.95;;;;;;;13.51;100.00;96463.03;1214549;75;3955092;-73
2023/10/25 04:00:34;;;;;;;2.30;1.65;;;;;;;13.46;100.00;96467.34;1225089;75;3039068;-73
2023/10/25 04:03:07;;;;;;;2.65;1.75;;;;;;;13.47;100.00;96459.84;1226725;75;2921276;-73
2023/10/25 04:05:43;;;;;;;2.15;1.40;;;;;;;13.61;100.00;96458.59;1224662;75;2932931;-69
2023/10/25 04:08:16;;;;;;;1.90;1.40;;;;;;;13.87;100.00;96459.94;1195426;75;5180865;-71
2023/10/25 04:10:53;;;;;;;1.00;0.90;;;;;;;13.97;100.00;96463.75;1224172;75;2920803;-75
2023/10/25 04:13:29;;;;;;;1.15;0.90;;;;;;;13.88;100.00;96472.41;1224174;75;2921994;-74
2023/10/25 04:16:04;;;;;;;1.90;1.20;;;;;;;13.58;100.00;96476.16;1222856;75;2925695;-74
2023/10/25 04:18:37;;;;;;;4.80;2.80;;;;;;;13.59;100.00;96477.66;1223755;75;2927846;-73
2023/10/25 04:21:14;;;;;;;5.35;3.35;;;;;;;13.70;100.00;96480.22;1222843;75;2966426;-74
2023/10/25 04:23:46;;;;;;;4.20;2.45;;;;;;;13.91;100.00;96472.09;1223242;75;2932935;-75
2023/10/25 04:26:19;;;;;;;4.00;2.50;;;;;;;13.77;100.00;96474.09;1224000;75;2917776;-72
2023/10/25 04:28:54;;;;;;;2.75;1.80;;;;;;;13.70;100.00;96479.47;1222960;75;2938652;-73
2023/10/25 04:31:27;;;;;;;3.05;1.75;;;;;;;13.92;100.00;96486.59;1220657;75;3064146;-72
2023/10/25 04:34:00;;;;;;;2.60;2.10;;;;;;;13.75;100.00;96479.38;1223013;75;2934529;-73
2023/10/25 04:36:33;;;;;;;3.20;1.70;;;;;;;13.98;100.00;96488.00;1224379;75;2920696;-74
2023/10/25 04:39:08;;;;;;;5.75;4.45;;;;;;;13.77;100.00;96493.34;1224534;75;2917654;-70
2023/10/25 04:41:41;;;;;;;5.70;3.80;;;;;;;14.00;100.00;96496.47;1222587;75;2931378;-70
2023/10/25 04:44:17;;;;;;;4.20;3.30;;;;;;;14.05;100.00;96498.38;1224370;75;2923709;-76
2023/10/25 04:46:49;;;;;;;4.30;3.40;;;;;;;14.07;100.00;96497.84;1219964;75;3104879;-75
2023/10/25 04:49:22;;;;;;;4.10;3.10;;;;;;;13.96;100.00;96501.53;1219903;75;3103879;-75
2023/10/25 04:51:55;;;;;;;6.50;5.20;;;;;;;14.03;100.00;96497.41;1220669;75;3059063;-76
2023/10/25 04:54:27;;;;;;;4.40;3.10;;;;;;;14.06;100.00;96491.59;1225318;75;2923178;-72
2023/10/25 04:57:01;;;;;;;3.55;2.60;;;;;;;14.09;100.00;96500.78;1223915;75;2926751;-73
2023/10/25 04:59:37;;;;;;;2.95;2.25;;;;;;;14.05;100.00;96503.13;1221220;75;3108630;-75
2023/10/25 05:02:09;;;;;;;2.75;1.55;;;;;;;13.72;100.00;96496.19;1224577;75;2917769;-73
2023/10/25 05:04:42;;;;;;;2.65;1.85;;;;;;;13.73;100.00;96506.66;1224135;75;2931423;-73
2023/10/25 05:07:16;;;;;;;1.70;1.25;;;;;;;14.00;100.00;96501.22;1224275;75;2926926;-72
2023/10/25 05:09:49;;;;;;;2.35;1.40;;;;;;;13.88;100.00;96503.44;1224713;75;2927188;-72
2023/10/25 05:12:32;;;;;;;2.00;1.35;;;;;;;13.97;100.00;96489.25;1224421;75;2896050;-74
2023/10/25 05:15:10;;;;;;;1.20;1.10;;;;;;;13.92;100.00;96476.31;1223988;75;2917040;-72
2023/10/25 05:17:44;;;;;;;1.90;1.30;;;;;;;13.97;100.00;96474.75;1224717;75;2928783;-72
2023/10/25 05:20:18;;;;;;;1.10;0.90;;;;;;;13.99;100.00;96472.22;1223693;75;2929444;-75
2023/10/25 05:22:55;;;;;;;1.70;0.80;;;;;;;13.98;100.00;96474.22;1223668;75;2921577;-72
2023/10/25 05:25:28;;;;;;;1.10;0.80;;;;;;;13.93;100.00;96469.56;1225773;75;2921022;-72
2023/10/25 05:28:02;;;;;;;1.20;1.00;;;;;;;13.94;100.00;96470.31;1224543;75;2924191;-72
2023/10/25 05:30:39;;;;;;;4.10;3.05;;;;;;;13.77;100.00;96479.59;1224513;75;2928409;-73
2023/10/25 05:33:12;;;;;;;2.50;2.20;;;;;;;13.71;100.00;96483.69;1224509;75;2933216;-74
2023/10/25 05:35:46;;;;;;;2.80;1.80;;;;;;;13.70;100.00;96493.97;1223594;75;2942456;-74
2023/10/25 05:38:20;;;;;;;1.90;1.45;;;;;;;13.74;100.00;96507.41;1223425;75;2922478;-75
2023/10/25 05:40:56;;;;;;;2.80;1.60;;;;;;;13.41;100.00;96518.41;1221411;75;3045632;-74
2023/10/25 05:43:34;;;;;;;3.15;1.60;;;;;;;13.29;100.00;96530.81;1223710;75;2928654;-69
2023/10/25 05:46:10;;;;;;;6.20;2.20;;;;;;;13.30;100.00;96537.06;1224464;75;2923728;-74
2023/10/25 05:48:44;;;;;;;2.35;1.70;;;;;;;13.46;100.00;96540.84;1184306;75;6143707;-78
2023/10/25 05:51:18;;;;;;;1.80;1.35;;;;;;;13.61;100.00;96547.38;1224181;75;2926438;-75
2023/10/25 05:53:51;;;;;;;1.40;1.00;;;;;;;13.73;100.00;96545.16;1224229;75;2924598;-73
2023/10/25 05:56:26;;;;;;;1.35;1.05;;;;;;;13.63;100.00;96547.56;1223883;75;2926851;-75
2023/10/25 05:58:59;;;;;;;1.55;0.90;;;;;;;13.73;100.00;96552.69;1223632;75;2930656;-71
2023/10/25 06:01:51;;;;;;;1.25;0.95;;;;;;;13.63;100.00;96560.56;1223960;75;2925954;-75
2023/10/25 06:04:24;;;;;;;2.45;1.10;;;;;;;13.63;100.00;96574.31;1224491;75;2920842;-76
2023/10/25 06:06:59;;;;;;;2.00;1.30;;;;;;;13.50;100.00;96580.53;1224297;75;2923159;-72
2023/10/25 06:09:33;;;;;;;1.55;1.20;;;;;;;13.50;100.00;96580.53;1223831;75;2926670;-75
2023/10/25 06:12:07;;;;;;;2.00;1.20;;;;;;;13.48;100.00;96576.81;1220097;75;3134258;-73
2023/10/25 06:14:39;;;;;;;1.95;1.40;;;;;;;13.59;100.00;96576.66;1224328;75;2927221;-75
2023/10/25 06:17:15;;;;;;;2.05;1.45;;;;;;;13.64;100.00;96584.06;1225303;75;2923179;-73
2023/10/25 06:19:47;;;;;;;2.15;1.55;;;;;;;13.71;100.00;96586.22;1224960;75;2917388;-73
2023/10/25 06:22:20;;;;;;;2.10;1.60;;;;;;;13.86;100.00;96583.00;1223738;75;2943303;-73
2023/10/25 06:24:53;;;;;;;1.60;1.25;;;;;;;13.97;100.00;96585.53;1217240;75;2919843;-74
2023/10/25 06:27:25;;;;;;;2.20;1.50;;;;;;;13.85;100.00;96592.50;1222812;75;2917897;-74
2023/10/25 06:29:58;;;;;;;1.80;1.50;;;;;;;13.90;100.00;96597.16;1224555;75;2931409;-77
2023/10/25 06:32:34;;;;;;;3.20;2.30;;;;;;;13.92;100.00;96607.66;1223346;75;2924994;-76
2023/10/25 06:35:07;;;;;;;3.70;2.60;;;;;;;13.95;100.00;96609.34;1222987;75;2924257;-74
2023/10/25 06:37:41;;;;;;;2.45;2.00;;;;;;;14.00;100.00;96606.53;1224107;75;2923723;-75
2023/10/25 06:40:15;;;;;;;2.70;1.80;;;;;;;13.86;100.00;96602.25;1224293;75;2931076;-75
2023/10/25 06:42:48;;;;;;;2.40;1.85;;;;;;;14.07;100.00;96597.66;1225141;75;2928394;-73
2023/10/25 06:45:22;;;;;;;1.95;1.45;;;;;;;14.12;100.00;96595.31;1223927;75;2923612;-74
2023/10/25 06:48:00;;;;;;;2.30;1.30;;;;;;;14.18;100.00;96593.22;1224050;75;2920981;-74
2023/10/25 06:50:34;;;;;;;1.70;1.10;;;;;;;14.26;100.00;96594.09;1209299;75;4112149;-73
2023/10/25 06:53:08;;;;;;;2.45;1.30;;;;;;;14.31;100.00;96592.50;1223281;75;2927931;-72
2023/10/25 06:55:41;;;;;;;1.45;1.10;;;;;;;14.35;100.00;96598.44;1222974;75;2923597;-71
2023/10/25 06:58:15;;;;;;;1.00;0.90;;;;;;;14.38;100.00;96598.16;1222945;75;2947731;-74
2023/10/25 07:00:48;;;;;;;1.00;0.90;;;;;;;14.42;100.00;96592.31;1223534;75;2948057;-76
2023/10/25 07:03:30;;;;;;;1.30;0.90;;;;;;;14.43;100.00;96594.56;1224308;75;2925871;-75
2023/10/25 07:06:06;;;;;;;1.80;1.35;;;;;;;14.19;100.00;96602.97;1223467;75;2926432;-73
2023/10/25 07:08:41;;;;;;;4.85;2.70;;;;;;;13.88;100.00;96607.22;1223121;75;2937515;-74
2023/10/25 07:11:13;;;;;;;5.35;2.45;;;;;;;13.92;100.00;96607.66;1224540;75;2932222;-74
2023/10/25 07:13:46;;;;;;;2.60;2.15;;;;;;;14.01;100.00;96605.25;1223400;75;2927855;-74
2023/10/25 07:16:19;;;;;;;7.15;2.80;;;;;;;13.97;100.00;96609.56;1222633;75;2982237;-75
2023/10/25 07:18:54;;;;;;;3.10;2.30;;;;;;;14.07;100.00;96616.94;1224339;75;2922553;-76
2023/10/25 07:21:27;;;;;;;4.40;2.45;;;;;;;14.00;100.00;96614.78;1223880;75;2927281;-73
2023/10/25 07:24:00;;;;;;;4.30;2.70;;;;;;;14.02;100.00;96611.50;1223470;75;2919942;-75
2023/10/25 07:26:33;;;;;;;5.20;2.60;;;;;;;14.11;100.00;96624.13;1222499;75;2932035;-73
2023/10/25 07:29:06;;;;;;;4.40;2.85;;;;;;;14.03;100.00;96621.25;1224559;75;2927860;-74
2023/10/25 07:31:38;;;;;;;6.00;2.50;;;;;;;14.27;100.00;96629.34;1197273;75;5008254;-72
2023/10/25 07:34:13;;;;;;;3.55;1.90;;;;;;;14.74;100.00;96628.06;1223535;75;2928920;-76
2023/10/25 07:36:46;;;;;;;5.45;2.35;;;;;;;14.44;100.00;96628.34;1223435;75;2923123;-76
2023/10/25 07:39:19;;;;;;;7.80;2.10;;;;;;;14.19;100.00;96627.72;1223502;75;2935093;-74
2023/10/25 07:41:54;;;;;;;3.25;1.70;;;;;;;14.28;100.00;96630.81;1223809;75;2921292;-73
2023/10/25 07:44:27;;;;;;;2.15;1.40;;;;;;;14.52;100.00;96625.69;1223883;75;2929348;-76
2023/10/25 07:46:59;;;;;;;4.45;1.75;;;;;;;14.63;100.00;96629.03;1223870;75;2929139;-74
2023/10/25 07:49:40;;;;;;;2.65;1.80;;;;;;;14.79;100.00;96632.75;1220880;75;3002989;-77
2023/10/25 07:52:12;;;;;;;1.30;1.20;;;;;;;15.10;100.00;96633.91;1223465;75;2927538;-73
2023/10/25 07:54:45;;;;;;;1.95;1.40;;;;;;;15.39;100.00;96631.31;1223665;75;2924453;-73
2023/10/25 07:57:19;;;;;;;1.10;1.00;;;;;;;15.44;100.00;96627.72;1224271;75;2925984;-74
2023/10/25 07:59:51;;;;;;;1.75;0.80;;;;;;;15.59;100.00;96629.91;1224109;75;2924227;-74
2023/10/25 08:02:24;;;;;;;1.45;1.10;;;;;;;15.73;100.00;96639.66;1224146;75;2921954;-73
2023/10/25 08:04:59;;;;;;;2.85;1.50;;;;;;;15.06;100.00;96649.28;1222701;75;2929658;-72
2023/10/25 08:07:32;;;;;;;2.10;1.45;;;;;;;15.10;100.00;96647.69;1224046;75;2925030;-77
2023/10/25 08:10:05;;;;;;;1.45;1.10;;;;;;;15.47;100.00;96648.72;1224518;75;2951528;-71
2023/10/25 08:12:38;;;;;;;1.50;1.05;;;;;;;15.73;100.00;96645.19;1224128;75;2930619;-71
2023/10/25 08:15:12;;;;;;;1.35;0.90;;;;;;;15.73;100.00;96645.19;1224092;75;2922361;-75
2023/10/25 08:17:45;;;;;;;1.15;0.70;;;;;;;15.90;100.00;96644.06;1224142;75;2922279;-74
2023/10/25 08:20:20;;;;;;;0.75;0.75;;;;;;;15.92;100.00;96642.25;1220780;75;2982206;-74
2023/10/25 08:22:53;;;;;;;0.80;0.60;;;;;;;16.07;100.00;96644.41;1222734;75;2929402;-76
2023/10/25 08:25:26;;;;;;;1.65;0.70;;;;;;;16.10;100.00;96645.34;1223305;75;2925202;-75
2023/10/25 08:27:59;;;;;;;0.95;0.75;;;;;;;16.10;100.00;96639.84;1224065;75;2927666;-75
2023/10/25 08:30:32;;;;;;;1.20;0.60;;;;;;;16.22;100.00;96635.53;1224234;75;2919331;-72
2023/10/25 08:33:05;;;;;;;1.00;0.60;;;;;;;16.32;100.00;96644.81;1223996;75;2922034;-75
2023/10/25 08:35:40;;;;;;;1.15;0.80;;;;;;;15.88;100.00;96646.63;1223869;75;2930124;-74
2023/10/25 08:38:13;;;;;;;2.25;1.20;;;;;;;15.79;100.00;96647.81;1224465;75;2920905;-74
2023/10/25 08:40:46;;;;;;;1.80;1.40;;;;;;;15.75;100.00;96642.63;1223611;75;2927577;-74
2023/10/25 08:43:19;;;;;;;1.95;1.35;;;;;;;15.87;100.00;96645.84;1223992;75;2928527;-71
2023/10/25 08:45:53;;;;;;;1.35;1.20;;;;;;;16.17;100.00;96648.19;1223139;75;2928927;-72
2023/10/25 08:48:25;;;;;;;1.05;0.80;;;;;;;16.17;100.00;96647.44;1221343;75;2923461;-70
2023/10/25 08:51:04;;;;;;;1.00;0.90;;;;;;;16.42;100.00;96652.63;1224067;75;2927147;-75
2023/10/25 08:53:37;;;;;;;3.80;1.00;;;;;;;16.21;100.00;96653.38;1224521;75;2922486;-74
2023/10/25 08:56:11;;;;;;;2.25;0.90;;;;;;;16.37;100.00;96648.72;1223057;75;2923215;-74
2023/10/25 08:58:43;;;;;;;1.15;1.05;;;;;;;16.46;100.00;96653.75;1224459;75;2921887;-74
2023/10/25 09:01:16;;;;;;;3.05;1.50;;;;;;;16.48;100.00;96651.22;1222448;75;2946078;-74
2023/10/25 09:03:48;;;;;;;1.65;1.20;;;;;;;16.41;100.00;96649.13;1221233;75;2923459;-72
2023/10/25 09:06:30;;;;;;;2.60;1.55;;;;;;;16.29;100.00;96643.13;1222016;75;2925249;-75
2023/10/25 09:09:07;;;;;;;4.35;1.60;;;;;;;16.65;100.00;96645.25;1224013;75;2933323;-76
2023/10/25 09:11:48;;;;;;;2.70;1.30;;;;;;;17.07;100.00;96638.91;1223799;75;2931202;-72
2023/10/25 09:14:20;;;;;;;1.55;1.10;;;;;;;17.45;100.00;96634.28;1223496;75;2924805;-74
2023/10/25 09:16:55;;;;;;;3.10;0.90;;;;;;;17.66;100.00;96639.00;1223653;75;2921048;-71
2023/10/25 09:19:27;;;;;;;0.55;0.55;;;;;;;17.82;100.00;96640.53;1224832;75;2920269;-72
2023/10/25 09:22:13;;;;;;;0.40;0.40;;;;;;;17.64;100.00;96645.06;1223271;75;2922657;-75
2023/10/25 09:24:52;;;;;;;2.15;1.00;;;;;;;16.83;100.00;96644.28;1222842;75;2918198;-74
2023/10/25 09:27:26;;;;;;;1.85;1.45;;;;;;;16.76;100.00;96642.22;1224376;75;2924385;-73
2023/10/25 09:30:14;;;;;;;7.40;1.20;;;;;;;17.17;100.00;96637.88;1224714;75;2928349;-74
2023/10/25 09:32:46;;;;;;;;;;;;;;;16.55;100.00;96642.25;1224824;75;2920370;-74
2023/10/25 09:35:19;;;;;;;2.05;1.15;;;;;;;16.26;100.00;96638.69;1223718;75;2928845;-73
2023/10/25 09:37:55;;;;;;;1.55;1.20;;;;;;;15.98;100.00;96645.59;1224228;75;2939522;-71
2023/10/25 09:40:29;;;;;;;2.75;1.35;;;;;;;16.35;100.00;96640.22;1224033;75;2920447;-73
2023/10/25 09:43:08;;;;;;;3.30;1.50;;;;;;;16.54;100.00;96632.44;1223945;75;2920980;-75
2023/10/25 09:45:41;;;;;;;3.00;1.40;;;;;;;16.63;100.00;96636.03;1221558;75;2934637;-74
2023/10/25 09:48:16;;;;;;;2.60;1.50;;;;;;;16.51;100.00;96619.00;1223110;75;2920897;-71
2023/10/25 09:51:05;;;;;;;3.50;2.15;;;;;;;16.36;100.00;96630.66;1223836;75;2922100;-70
2023/10/25 09:53:47;;;;;;;2.50;1.80;;;;;;;16.86;100.00;96620.38;1224564;75;2923937;-77
2023/10/25 09:56:20;;;;;;;1.80;1.20;;;;;;;17.16;100.00;96608.00;1222270;75;2930628;-73
2023/10/25 09:58:55;;;;;;;6.40;2.15;;;;;;;16.83;100.00;96613.16;1223809;75;2921789;-77
2023/10/25 10:01:27;;;;;;;3.00;1.90;;;;;;;16.80;100.00;96611.47;1224546;75;2917128;-76
2023/10/25 10:04:17;;;;;;;2.30;1.40;;;;;;;17.02;100.00;96612.88;1223213;75;2933433;-76
2023/10/25 10:07:02;;;;;;;2.35;1.60;;;;;;;16.78;100.00;96609.25;1223236;75;2929954;-75
2023/10/25 10:09:47;;;;;;;2.15;1.50;;;;;;;17.63;100.00;96607.63;1223700;75;2925916;-75
2023/10/25 10:12:20;;;;;;;1.50;1.00;;;;;;;18.04;100.00;96596.84;1223088;75;2934710;-73
2023/10/25 10:14:52;;;;;;;1.55;1.00;;;;;;;18.06;100.00;96605.31;1224081;75;2934801;-73
2023/10/25 10:17:26;;;;;;;1.55;1.15;;;;;;;18.27;100.00;96592.03;1223778;75;2925425;-75
2023/10/25 10:19:59;;;;;;;5.20;3.15;;;;;;;17.77;100.00;96588.06;1224420;75;2921783;-74
2023/10/25 10:22:31;;;;;;;2.45;1.90;;;;;;;18.54;100.00;96591.63;1224306;75;2921341;-76
2023/10/25 10:25:08;;;;;;;2.90;1.90;;;;;;;18.65;100.00;96588.50;1224872;75;2923245;-75
2023/10/25 10:28:05;;;;;;;2.40;1.40;;;;;;;18.52;100.00;96574.84;1223972;75;2923809;-77
2023/10/25 10:30:40;;;;;;;2.40;1.10;;;;;;;19.72;100.00;96561.69;1225738;75;2916589;-75
2023/10/25 10:33:15;;;;;;;2.20;1.30;;;;;;;20.42;87.66;96545.97;1225036;75;2921934;-74
2023/10/25 10:35:52;;;;;;;1.50;0.90;;;;;;;19.55;88.96;96554.75;1225010;75;2929553;-75
2023/10/25 10:38:24;;;;;;;2.30;0.90;;;;;;;19.40;89.21;96562.41;1210255;75;3956434;-75
2023/10/25 10:41:05;;;;;;;1.95;1.30;;;;;;;18.71;99.75;96566.88;1222432;75;2996868;-73
2023/10/25 10:43:38;;;;;;;5.15;1.75;;;;;;;17.83;100.00;96567.25;1224451;75;2920622;-76
2023/10/25 10:46:12;;;;;;;3.85;1.65;;;;;;;17.74;100.00;96558.72;1220635;75;3061379;-76
2023/10/25 10:48:46;;;;;;;1.05;0.90;;;;;;;18.01;100.00;96565.41;1222918;75;2922458;-77
2023/10/25 10:51:19;;;;;;;1.65;1.10;;;;;;;17.82;100.00;96551.94;1222353;75;2928180;-73
2023/10/25 10:53:52;;;;;;;3.40;1.35;;;;;;;17.80;100.00;96554.53;1220739;75;3046995;-77
2023/10/25 10:56:27;;;;;;;1.05;0.90;;;;;;;17.77;100.00;96543.78;1224336;75;2920862;-76
2023/10/25 10:59:01;;;;;;;2.20;1.20;;;;;;;17.37;100.00;96533.22;1223747;75;2923640;-77
2023/10/25 11:01:34;;;;;;;1.60;1.05;;;;;;;18.19;100.00;96540.69;1223321;75;2920826;-71
2023/10/25 11:04:07;;;;;;;3.10;1.05;;;;;;;17.41;100.00;96526.03;1224231;75;2930107;-77
2023/10/25 11:06:42;;;;;;;2.05;1.25;;;;;;;18.18;100.00;96519.81;1223815;75;2927365;-76
2023/10/25 11:09:15;;;;;;;2.55;1.20;;;;;;;18.26;100.00;96520.56;1224161;75;2930721;-71
2023/10/25 11:11:50;;;;;;;1.55;0.90;;;;;;;17.98;100.00;96505.63;1224797;75;2923965;-75
2023/10/25 11:14:23;;;;;;;2.25;0.90;;;;;;;17.98;99.00;96508.38;1224219;75;2917606;-76
2023/10/25 11:16:57;;;;;;;2.30;1.05;;;;;;;18.29;100.00;96509.09;1222178;75;2928148;-77
2023/10/25 11:19:31;;;;;;;2.65;1.40;;;;;;;18.03;100.00;96509.50;1223622;75;2925444;-76
2023/10/25 11:22:04;;;;;;;1.25;1.00;;;;;;;17.70;100.00;96500.22;1223912;75;2948847;-79
2023/10/25 11:24:38;;;;;;;2.45;1.15;;;;;;;17.65;100.00;96504.66;1222158;75;2922479;-75
2023/10/25 11:27:14;;;;;;;2.05;1.05;;;;;;;17.67;100.00;96500.03;1223609;75;2918665;-70
2023/10/25 11:29:48;;;;;;;2.25;1.10;;;;;;;18.38;100.00;96487.66;1223924;75;2937029;-75
2023/10/25 11:32:21;;;;;;;2.70;1.00;;;;;;;19.03;100.00;96476.75;1222893;75;2935486;-78
2023/10/25 11:34:56;;;;;;;1.55;0.90;;;;;;;19.65;94.50;96479.13;1223316;75;2923685;-76
2023/10/25 11:37:28;;;;;;;4.65;2.80;;;;;;;19.74;93.79;96481.31;1224264;75;2919430;-77
2023/10/25 11:40:03;;;;;;;2.55;1.70;;;;;;;20.64;88.24;96477.56;1224089;75;2944693;-75
2023/10/25 11:42:39;;;;;;;4.00;1.30;;;;;;;20.27;86.29;96471.06;1223979;75;2931733;-77